Time;durP1;ratioP1;P1;durP2;ratioP2;P2;SDS_P1;SDS_P2;PMS_P1;PMS_P2;Temp;Humidity;BMP_temperature;BMP_pressure;BME280_temperature;BME280_humidity;BME280_pressure;Samples;Min_cycle;Max_cycle;Signal;HPM_P1;HPM_P2
2021/12/16 00:08:36;;;;;;;;;;;;;;;;;;5158642;27;20447;-76
2021/12/16 00:35:07;;;;;;;38.25;17.63;;;;;;;;;;5158207;27;20051;-72
2021/12/16 00:37:33;;;;;;;42.35;16.65;;;;;;;;;;5157967;27;20038;-72
2021/12/16 00:40:00;;;;;;;43.78;17.40;;;;;;;;;;5158151;27;20045;-73
2021/12/16 00:54:09;;;;;;;42.97;17.65;;;;;;;;;;5157529;27;20105;-73
2021/12/16 00:55:59;;;;;;;38.78;15.02;;;;;;;;;;5157613;27;20047;-76
2021/12/16 00:58:30;;;;;;;37.97;16.08;;;;;;;;;;5158325;27;20114;-74
2021/12/16 01:01:29;;;;;;;39.42;15.52;;;;;;;;;;5158038;27;20047;-73
2021/12/16 01:07:05;;;;;;;52.30;17.48;;;;;;;;;;5157624;27;20051;-75
2021/12/16 01:34:20;;;;;;;39.75;15.30;;;;;;;;;;5156885;27;20080;-73
2021/12/16 01:47:26;;;;;;;31.30;12.65;;;;;;;;;;5156439;27;20043;-74
2021/12/16 01:55:07;;;;;;;39.88;13.05;;;;;;;;;;5156660;27;20270;-73
2021/12/16 01:57:47;;;;;;;32.67;12.90;;;;;;;;;;5156285;27;20042;-73
2021/12/16 02:00:13;;;;;;;29.63;13.15;;;;;;;;;;5156590;27;20047;-73
2021/12/16 02:02:45;;;;;;;36.35;13.27;;;;;;;;;;5137831;27;20054;-74
2021/12/16 02:10:34;;;;;;;36.70;12.70;;;;;;;;;;5156041;27;20054;-73
2021/12/16 02:34:31;;;;;;;35.38;12.77;;;;;;;;;;5156439;27;20054;-74
2021/12/16 02:36:57;;;;;;;37.20;13.90;;;;;;;;;;5156012;27;20057;-73
2021/12/16 02:39:25;;;;;;;38.03;15.07;;;;;;;;;;5155530;27;20047;-74
2021/12/16 02:41:54;;;;;;;38.70;15.32;;;;;;;;;;5137069;27;20042;-73
2021/12/16 02:49:58;;;;;;;32.80;13.68;;;;;;;;;;5155491;27;20051;-72
2021/12/16 02:52:26;;;;;;;28.52;12.77;;;;;;;;;;5155305;27;20098;-72
2021/12/16 02:54:52;;;;;;;33.28;13.18;;;;;;;;;;5156164;27;20427;-72
2021/12/16 02:57:18;;;;;;;28.95;13.27;;;;;;;;;;5155813;27;20035;-71
2021/12/16 02:59:45;;;;;;;42.75;13.57;;;;;;;;;;5155255;27;20042;-72
2021/12/16 03:02:15;;;;;;;33.45;13.63;;;;;;;;;;5137848;27;20061;-72
2021/12/16 03:04:43;;;;;;;37.60;13.95;;;;;;;;;;5137774;27;20134;-72
2021/12/16 03:07:12;;;;;;;33.28;13.60;;;;;;;;;;5136904;27;20421;-73
2021/12/16 03:14:59;;;;;;;32.08;14.23;;;;;;;;;;5154853;27;20505;-72
2021/12/16 03:20:34;;;;;;;38.08;13.35;;;;;;;;;;5133289;27;20051;-71
2021/12/16 03:25:56;;;;;;;35.15;13.82;;;;;;;;;;5155624;27;20046;-72
2021/12/16 03:38:34;;;;;;;35.80;12.77;;;;;;;;;;5159581;27;20147;-72
2021/12/16 03:41:00;;;;;;;36.25;14.02;;;;;;;;;;5159113;27;20043;-73
2021/12/16 03:43:28;;;;;;;;;;;;;;;;;;5159322;27;20086;-72
2021/12/16 03:48:44;;;;;;;37.60;14.15;;;;;;;;;;5159397;27;20046;-72
2021/12/16 03:51:12;;;;;;;30.30;13.40;;;;;;;;;;5158854;27;20039;-72
2021/12/16 03:53:42;;;;;;;34.28;13.15;;;;;;;;;;5159230;27;20053;-72
2021/12/16 03:56:08;;;;;;;34.08;14.45;;;;;;;;;;5140523;27;20547;-72
2021/12/16 03:58:34;;;;;;;38.92;14.07;;;;;;;;;;5140168;27;20129;-72
2021/12/16 04:01:02;;;;;;;33.58;13.38;;;;;;;;;;5159471;27;20107;-72
2021/12/16 04:03:28;;;;;;;39.63;13.88;;;;;;;;;;5158542;27;20046;-71
2021/12/16 04:05:54;;;;;;;37.50;13.40;;;;;;;;;;5158530;27;20125;-72
2021/12/16 04:08:21;;;;;;;44.72;13.93;;;;;;;;;;5140249;27;20502;-72
2021/12/16 04:11:00;;;;;;;34.50;13.55;;;;;;;;;;5159022;27;20185;-72
2021/12/16 04:13:27;;;;;;;31.92;13.57;;;;;;;;;;5158898;27;20087;-71
2021/12/16 04:15:53;;;;;;;42.80;14.25;;;;;;;;;;5158611;27;20406;-72
2021/12/16 04:18:19;;;;;;;34.75;14.52;;;;;;;;;;5158454;27;20057;-72
2021/12/16 04:20:45;;;;;;;35.63;14.15;;;;;;;;;;5159002;27;20070;-72
2021/12/16 04:23:12;;;;;;;33.97;13.80;;;;;;;;;;5140456;27;20078;-72
2021/12/16 04:25:38;;;;;;;;;;;;;;;;;;5158436;27;20053;-72
2021/12/16 04:28:06;;;;;;;34.78;14.13;;;;;;;;;;5139960;27;19919;-72
2021/12/16 04:30:33;;;;;;;43.80;14.25;;;;;;;;;;5157706;27;20575;-71
2021/12/16 04:32:59;;;;;;;33.65;13.13;;;;;;;;;;5158575;27;20099;-72
2021/12/16 04:35:26;;;;;;;33.20;13.98;;;;;;;;;;5157925;27;20074;-73
2021/12/16 04:37:52;;;;;;;28.90;12.93;;;;;;;;;;5158110;27;20454;-72
2021/12/16 04:40:19;;;;;;;37.95;15.32;;;;;;;;;;5157254;27;20076;-72
2021/12/16 04:42:46;;;;;;;32.30;13.55;;;;;;;;;;5157354;27;20042;-72
2021/12/16 04:45:14;;;;;;;32.53;14.50;;;;;;;;;;5158421;27;20086;-72
2021/12/16 04:47:40;;;;;;;37.67;15.10;;;;;;;;;;5139306;27;20039;-72
2021/12/16 04:50:06;;;;;;;;;;;;;;;;;;5158137;27;20042;-71
2021/12/16 04:52:32;;;;;;;30.65;13.10;;;;;;;;;;5157670;27;19922;-71
2021/12/16 04:54:59;;;;;;;39.25;13.75;;;;;;;;;;5139833;27;20078;-72
2021/12/16 04:57:25;;;;;;;43.90;14.95;;;;;;;;;;5157605;27;20034;-72
2021/12/16 04:59:51;;;;;;;31.05;14.88;;;;;;;;;;5139005;27;20073;-71
2021/12/16 05:02:19;;;;;;;34.78;14.35;;;;;;;;;;5157515;27;20043;-72
2021/12/16 05:04:45;;;;;;;34.30;14.07;;;;;;;;;;5157406;27;20046;-71
2021/12/16 05:07:11;;;;;;;32.63;14.82;;;;;;;;;;5122211;27;20125;-71
2021/12/16 05:12:09;;;;;;;33.30;16.48;;;;;;;;;;5157806;27;20046;-72
2021/12/16 05:14:35;;;;;;;39.30;16.58;;;;;;;;;;5157154;27;20051;-71
2021/12/16 05:17:06;;;;;;;43.03;16.88;;;;;;;;;;5157165;27;20126;-72
2021/12/16 05:19:32;;;;;;;45.95;17.33;;;;;;;;;;5138675;27;20417;-72
2021/12/16 05:24:14;;;;;;;41.25;17.67;;;;;;;;;;5156952;27;20096;-72
2021/12/16 05:24:44;;;;;;;39.88;16.77;;;;;;;;;;5156994;27;20055;-72
2021/12/16 05:27:10;;;;;;;38.67;16.33;;;;;;;;;;5156966;27;20047;-72
2021/12/16 05:29:37;;;;;;;42.00;16.08;;;;;;;;;;5156885;27;20049;-71
2021/12/16 05:32:03;;;;;;;;;;;;;;;;;;5157352;27;20393;-71
2021/12/16 05:34:29;;;;;;;43.85;17.02;;;;;;;;;;5156824;27;20013;-72
2021/12/16 05:36:55;;;;;;;35.85;16.58;;;;;;;;;;5156422;27;20473;-71
2021/12/16 05:39:21;;;;;;;39.70;16.17;;;;;;;;;;5156691;27;20053;-72
2021/12/16 05:41:48;;;;;;;41.67;16.85;;;;;;;;;;5156581;27;20050;-71
2021/12/16 05:44:14;;;;;;;;;;;;;;;;;;5157043;27;20042;-72
2021/12/16 05:46:40;;;;;;;35.88;15.52;;;;;;;;;;5138087;27;19919;-71
2021/12/16 05:49:06;;;;;;;;;;;;;;;;;;5157552;27;20130;-72
2021/12/16 05:51:34;;;;;;;39.03;15.65;;;;;;;;;;5156366;27;19966;-71
2021/12/16 05:54:01;;;;;;;31.90;16.50;;;;;;;;;;5155433;27;20126;-72
2021/12/16 05:56:27;;;;;;;36.80;16.08;;;;;;;;;;5156994;27;20038;-72
2021/12/16 05:58:54;;;;;;;33.88;15.93;;;;;;;;;;5137957;27;20081;-72
2021/12/16 06:01:19;;;;;;;;;;;;;;;;;;5157325;27;20390;-72
2021/12/16 06:03:46;;;;;;;35.50;16.27;;;;;;;;;;5137728;27;19919;-71
2021/12/16 06:06:12;;;;;;;39.17;16.67;;;;;;;;;;5156147;27;20053;-73
2021/12/16 06:08:38;;;;;;;45.53;17.15;;;;;;;;;;5156159;27;20043;-71
2021/12/16 06:13:36;;;;;;;36.72;16.95;;;;;;;;;;5137523;27;20398;-73
2021/12/16 06:29:27;;;;;;;36.03;16.63;;;;;;;;;;5155781;27;20046;-72
2021/12/16 06:31:54;;;;;;;39.28;16.60;;;;;;;;;;5137233;27;20046;-72
2021/12/16 06:34:20;;;;;;;34.80;16.35;;;;;;;;;;5155766;27;20042;-71
2021/12/16 06:36:46;;;;;;;43.67;17.70;;;;;;;;;;5155586;27;20106;-71
2021/12/16 06:39:12;;;;;;;40.92;17.15;;;;;;;;;;5137759;27;20050;-72
2021/12/16 06:41:38;;;;;;;34.20;17.02;;;;;;;;;;5155567;27;20072;-72
2021/12/16 06:44:13;;;;;;;41.72;16.80;;;;;;;;;;5155178;27;20485;-72
2021/12/16 06:46:41;;;;;;;36.90;17.02;;;;;;;;;;5155465;27;20043;-72
2021/12/16 06:49:10;;;;;;;46.72;17.88;;;;;;;;;;5155260;27;20474;-72
2021/12/16 06:51:51;;;;;;;36.72;17.65;;;;;;;;;;5136940;27;20043;-72
2021/12/16 06:54:28;;;;;;;36.72;17.63;;;;;;;;;;5140128;27;20082;-72
2021/12/16 06:59:48;;;;;;;48.40;17.70;;;;;;;;;;5155254;27;20474;-72
2021/12/16 07:02:36;;;;;;;46.75;18.17;;;;;;;;;;5136733;27;20050;-72
2021/12/16 07:05:00;;;;;;;45.90;18.10;;;;;;;;;;5154227;27;20482;-72
2021/12/16 07:07:26;;;;;;;39.60;18.50;;;;;;;;;;5155101;27;20042;-71
2021/12/16 07:09:53;;;;;;;43.25;19.10;;;;;;;;;;5154663;27;20442;-71
2021/12/16 07:12:25;;;;;;;35.10;16.95;;;;;;;;;;5155181;27;20046;-72
2021/12/16 07:14:51;;;;;;;40.33;17.40;;;;;;;;;;5137810;27;20494;-71
2021/12/16 07:17:17;;;;;;;42.20;17.40;;;;;;;;;;5155634;27;20038;-72
2021/12/16 07:19:45;;;;;;;39.97;16.42;;;;;;;;;;5155870;27;20056;-72
2021/12/16 07:22:12;;;;;;;42.70;18.60;;;;;;;;;;5155526;27;20103;-72
2021/12/16 07:24:38;;;;;;;47.30;18.52;;;;;;;;;;5155014;27;20131;-72
2021/12/16 07:27:04;;;;;;;41.58;18.42;;;;;;;;;;5155412;27;20125;-71
2021/12/16 07:29:31;;;;;;;43.10;18.77;;;;;;;;;;5120390;27;20445;-71
2021/12/16 07:31:59;;;;;;;37.15;17.73;;;;;;;;;;5155263;27;20089;-72
2021/12/16 07:34:25;;;;;;;43.83;18.67;;;;;;;;;;5154556;27;20042;-72
2021/12/16 07:36:52;;;;;;;43.75;19.27;;;;;;;;;;5136348;27;20043;-71
2021/12/16 07:39:20;;;;;;;38.53;16.35;;;;;;;;;;5136334;27;20054;-71
2021/12/16 07:41:48;;;;;;;44.00;17.35;;;;;;;;;;5154389;27;20046;-72
2021/12/16 07:44:14;;;;;;;35.80;17.95;;;;;;;;;;5154086;27;20058;-71
2021/12/16 07:46:47;;;;;;;39.25;17.63;;;;;;;;;;5153656;27;20121;-71
2021/12/16 07:49:17;;;;;;;41.67;18.40;;;;;;;;;;5154162;27;20082;-72
2021/12/16 07:51:44;;;;;;;44.03;19.40;;;;;;;;;;5135054;27;20054;-71
2021/12/16 07:54:11;;;;;;;47.13;20.50;;;;;;;;;;5152928;27;20042;-72
2021/12/16 07:56:37;;;;;;;45.95;20.77;;;;;;;;;;5152874;27;20045;-72
2021/12/16 07:59:04;;;;;;;36.88;18.98;;;;;;;;;;5152608;27;20508;-73
2021/12/16 08:01:30;;;;;;;41.53;19.30;;;;;;;;;;5117534;27;20050;-72
2021/12/16 08:03:59;;;;;;;42.85;19.70;;;;;;;;;;5152656;27;20043;-72
2021/12/16 08:06:27;;;;;;;38.85;19.27;;;;;;;;;;5152937;27;20035;-72
2021/12/16 08:08:56;;;;;;;50.88;20.88;;;;;;;;;;5134245;27;20047;-72
2021/12/16 08:11:22;;;;;;;48.33;21.42;;;;;;;;;;5149894;27;20061;-72
2021/12/16 08:13:48;;;;;;;;;;;;;;;;;;5153223;27;20051;-72
2021/12/16 08:16:14;;;;;;;43.13;20.08;;;;;;;;;;5135731;27;20074;-72
2021/12/16 08:18:40;;;;;;;48.65;21.35;;;;;;;;;;5156391;27;20467;-72
2021/12/16 08:21:06;;;;;;;43.85;21.33;;;;;;;;;;5156477;27;20042;-71
2021/12/16 08:23:33;;;;;;;53.10;21.42;;;;;;;;;;5157007;27;20046;-71
2021/12/16 08:25:59;;;;;;;52.35;22.95;;;;;;;;;;5156475;27;20039;-72
2021/12/16 08:28:27;;;;;;;;;;;;;;;;;;5156961;27;20038;-71
2021/12/16 08:30:54;;;;;;;51.63;22.98;;;;;;;;;;5156556;27;20009;-72
2021/12/16 08:33:20;;;;;;;50.80;23.85;;;;;;;;;;5157031;27;20126;-72
2021/12/16 08:35:48;;;;;;;52.45;22.77;;;;;;;;;;5138368;27;20042;-72
2021/12/16 08:38:18;;;;;;;60.05;25.30;;;;;;;;;;5157092;27;20074;-72
2021/12/16 08:40:45;;;;;;;54.90;25.23;;;;;;;;;;5156370;27;20506;-71
2021/12/16 08:43:12;;;;;;;52.35;24.10;;;;;;;;;;5156086;27;20050;-72
2021/12/16 08:45:38;;;;;;;46.28;22.80;;;;;;;;;;5156015;27;20504;-71
2021/12/16 08:48:04;;;;;;;;;;;;;;;;;;5156205;27;20417;-72
2021/12/16 08:50:32;;;;;;;54.42;24.85;;;;;;;;;;5155833;27;19919;-71
2021/12/16 08:53:03;;;;;;;51.00;23.95;;;;;;;;;;5155754;27;20042;-71
2021/12/16 08:55:32;;;;;;;51.72;23.27;;;;;;;;;;5137594;27;20053;-71
2021/12/16 08:57:58;;;;;;;49.78;21.98;;;;;;;;;;5156105;27;20164;-72
2021/12/16 09:00:27;;;;;;;53.45;23.75;;;;;;;;;;5155870;27;20047;-71
2021/12/16 09:02:53;;;;;;;48.88;21.73;;;;;;;;;;5137112;27;20047;-72
2021/12/16 09:05:20;;;;;;;51.40;23.55;;;;;;;;;;5137229;27;20057;-72
2021/12/16 09:07:48;;;;;;;;;;;;;;;;;;5156562;27;20043;-72
2021/12/16 09:10:15;;;;;;;61.47;25.63;;;;;;;;;;5133749;27;19919;-72
2021/12/16 09:15:16;;;;;;;56.28;24.92;;;;;;;;;;5134440;27;20054;-72
2021/12/16 09:17:42;;;;;;;66.40;25.38;;;;;;;;;;5134857;27;20130;-72
2021/12/16 09:20:09;;;;;;;69.53;24.55;;;;;;;;;;5134726;27;20232;-71
2021/12/16 09:22:36;;;;;;;67.32;26.20;;;;;;;;;;5134782;27;20043;-72
2021/12/16 09:25:02;;;;;;;63.42;27.13;;;;;;;;;;5133630;27;20047;-71
2021/12/16 09:27:29;;;;;;;81.63;28.17;;;;;;;;;;5133091;27;20043;-71
2021/12/16 09:29:55;;;;;;;74.57;27.20;;;;;;;;;;5134518;27;20092;-72
2021/12/16 09:32:24;;;;;;;63.75;27.23;;;;;;;;;;5134421;27;20116;-71
2021/12/16 09:34:50;;;;;;;75.22;29.63;;;;;;;;;;5134611;27;20054;-71
2021/12/16 09:37:16;;;;;;;98.43;29.58;;;;;;;;;;5134275;27;20097;-71
2021/12/16 09:39:43;;;;;;;89.43;30.83;;;;;;;;;;5134223;27;20055;-71
2021/12/16 09:42:09;;;;;;;92.32;32.53;;;;;;;;;;5135368;27;20089;-71
2021/12/16 09:44:36;;;;;;;97.25;30.75;;;;;;;;;;5135017;27;20043;-71
2021/12/16 09:47:05;;;;;;;;;;;;;;;;;;5136082;27;20152;-72
2021/12/16 09:49:31;;;;;;;81.07;29.15;;;;;;;;;;5135793;27;20335;-72
2021/12/16 09:51:59;;;;;;;144.10;35.38;;;;;;;;;;5134691;27;20072;-71
2021/12/16 09:54:28;;;;;;;129.68;31.80;;;;;;;;;;5135976;27;20053;-71
2021/12/16 09:56:55;;;;;;;141.10;33.63;;;;;;;;;;5135684;27;20126;-72
2021/12/16 09:59:23;;;;;;;162.98;36.50;;;;;;;;;;5134697;27;20455;-71
2021/12/16 10:01:51;;;;;;;161.55;35.70;;;;;;;;;;5135601;27;20043;-72
2021/12/16 10:04:20;;;;;;;257.98;41.63;;;;;;;;;;5135760;27;20130;-71
2021/12/16 10:06:47;;;;;;;163.82;36.20;;;;;;;;;;5135982;27;20043;-72
2021/12/16 10:09:13;;;;;;;181.52;40.55;;;;;;;;;;5135699;27;20047;-72
2021/12/16 10:11:44;;;;;;;171.55;35.85;;;;;;;;;;5156141;27;20050;-72
2021/12/16 10:19:25;;;;;;;200.30;37.38;;;;;;;;;;5141131;27;20051;-72
2021/12/16 10:21:53;;;;;;;144.68;35.28;;;;;;;;;;5137568;27;20046;-71
2021/12/16 10:24:22;;;;;;;126.90;34.42;;;;;;;;;;5155705;27;20079;-72
2021/12/16 10:27:03;;;;;;;237.13;39.88;;;;;;;;;;5155713;27;20043;-72
2021/12/16 10:29:50;;;;;;;106.35;33.30;;;;;;;;;;5156039;27;20047;-72
2021/12/16 10:32:37;;;;;;;221.38;40.15;;;;;;;;;;5138512;27;20046;-72
2021/12/16 10:35:06;;;;;;;177.07;36.97;;;;;;;;;;5155649;27;20105;-72
2021/12/16 10:37:35;;;;;;;75.28;30.38;;;;;;;;;;5155475;27;20103;-72
2021/12/16 10:40:23;;;;;;;192.88;38.45;;;;;;;;;;5155516;27;20038;-72
2021/12/16 10:42:49;;;;;;;163.80;34.20;;;;;;;;;;5137054;27;20056;-72
2021/12/16 10:45:26;;;;;;;213.73;40.10;;;;;;;;;;5155364;27;20054;-72
2021/12/16 10:48:13;;;;;;;222.50;41.47;;;;;;;;;;5155035;27;20053;-72
2021/12/16 10:50:54;;;;;;;188.93;39.28;;;;;;;;;;5155506;27;20067;-72
2021/12/16 10:53:39;;;;;;;210.07;39.67;;;;;;;;;;5137168;27;20111;-72
2021/12/16 10:56:05;;;;;;;198.07;37.53;;;;;;;;;;5155334;27;20046;-73
2021/12/16 10:58:48;;;;;;;166.40;34.90;;;;;;;;;;5136973;27;20449;-73
2021/12/16 11:01:32;;;;;;;283.42;45.33;;;;;;;;;;5136612;27;20047;-72
2021/12/16 11:03:58;;;;;;;243.52;42.95;;;;;;;;;;5155731;27;20394;-71
2021/12/16 11:06:30;;;;;;;218.75;41.30;;;;;;;;;;5154960;27;20042;-72
2021/12/16 11:09:16;;;;;;;173.02;36.58;;;;;;;;;;5155121;27;20043;-72
2021/12/16 11:11:42;;;;;;;263.00;41.55;;;;;;;;;;5156001;27;20082;-72
2021/12/16 11:14:08;;;;;;;89.38;33.97;;;;;;;;;;5136552;27;20479;-72
2021/12/16 11:16:36;;;;;;;132.05;35.25;;;;;;;;;;5155072;27;20487;-72
2021/12/16 11:19:03;;;;;;;120.30;35.85;;;;;;;;;;5154546;27;20175;-72
2021/12/16 11:21:39;;;;;;;207.98;36.17;;;;;;;;;;5155382;27;20054;-72
2021/12/16 11:24:22;;;;;;;283.38;42.45;;;;;;;;;;5155374;27;20049;-72
2021/12/16 11:26:48;;;;;;;218.32;41.10;;;;;;;;;;5155155;27;20138;-71
2021/12/16 11:29:14;;;;;;;188.18;36.22;;;;;;;;;;5155092;27;20100;-73
2021/12/16 11:31:40;;;;;;;132.77;34.83;;;;;;;;;;5136607;27;20047;-72
2021/12/16 11:34:07;;;;;;;;;;;;;;;;;;5155341;27;20046;-73
2021/12/16 11:36:35;;;;;;;188.63;38.20;;;;;;;;;;5154768;27;19929;-71
2021/12/16 11:39:02;;;;;;;196.38;36.42;;;;;;;;;;5154865;27;20079;-72
2021/12/16 11:41:28;;;;;;;163.77;35.63;;;;;;;;;;5155272;27;20138;-72
2021/12/16 11:44:00;;;;;;;226.63;39.78;;;;;;;;;;5154871;27;20046;-71
2021/12/16 11:46:29;;;;;;;200.80;37.88;;;;;;;;;;5136512;27;20378;-71
2021/12/16 11:48:56;;;;;;;157.40;38.20;;;;;;;;;;5136479;27;20042;-72
2021/12/16 11:51:27;;;;;;;215.63;42.45;;;;;;;;;;5156388;27;20050;-71
2021/12/16 11:53:55;;;;;;;180.90;38.30;;;;;;;;;;5140588;27;20111;-74
2021/12/16 11:56:34;;;;;;;282.00;41.70;;;;;;;;;;5159485;27;20035;-70
2021/12/16 11:59:00;;;;;;;199.57;37.47;;;;;;;;;;5140433;27;20043;-71
2021/12/16 12:01:26;;;;;;;141.82;35.47;;;;;;;;;;5158917;27;20170;-73
2021/12/16 12:03:59;;;;;;;114.75;32.08;;;;;;;;;;5158483;27;20043;-70
2021/12/16 12:06:28;;;;;;;91.50;30.83;;;;;;;;;;5158098;27;20038;-70
2021/12/16 12:08:55;;;;;;;124.70;36.00;;;;;;;;;;5158089;27;20398;-71
2021/12/16 12:11:21;;;;;;;140.68;37.30;;;;;;;;;;5158477;27;20050;-71
2021/12/16 12:13:51;;;;;;;161.38;36.05;;;;;;;;;;5158175;27;20043;-71
2021/12/16 12:16:18;;;;;;;176.88;38.00;;;;;;;;;;5157886;27;20121;-72
2021/12/16 12:18:44;;;;;;;151.48;34.00;;;;;;;;;;5157800;27;20087;-71
2021/12/16 12:21:16;;;;;;;136.05;35.28;;;;;;;;;;5139560;27;20038;-71
2021/12/16 12:23:43;;;;;;;141.73;36.78;;;;;;;;;;5157777;27;20083;-71
2021/12/16 12:26:12;;;;;;;;;;;;;;;;;;5158492;27;20049;-71
2021/12/16 12:28:38;;;;;;;129.25;35.03;;;;;;;;;;5158146;27;19943;-71
2021/12/16 12:31:05;;;;;;;125.85;35.78;;;;;;;;;;5157293;27;20505;-71
2021/12/16 12:33:33;;;;;;;131.90;36.03;;;;;;;;;;5139054;27;20050;-71
2021/12/16 12:35:59;;;;;;;156.70;35.75;;;;;;;;;;5139024;27;20140;-71
2021/12/16 12:38:26;;;;;;;107.40;33.17;;;;;;;;;;5157385;27;20490;-71
2021/12/16 12:40:52;;;;;;;132.60;35.88;;;;;;;;;;5139197;27;20080;-72
2021/12/16 12:43:18;;;;;;;111.13;32.47;;;;;;;;;;5139666;27;20122;-71
2021/12/16 12:45:44;;;;;;;92.43;30.83;;;;;;;;;;5157658;27;20556;-72
2021/12/16 12:48:11;;;;;;;101.30;32.40;;;;;;;;;;5157716;27;20043;-72
2021/12/16 12:50:40;;;;;;;114.05;34.30;;;;;;;;;;5158083;27;20043;-72
2021/12/16 12:53:13;;;;;;;121.20;34.17;;;;;;;;;;5157501;27;20141;-72
2021/12/16 12:55:40;;;;;;;115.40;34.05;;;;;;;;;;5157987;27;20038;-72
2021/12/16 12:58:06;;;;;;;;;;;;;;;;;;5157925;27;20056;-71
2021/12/16 13:00:34;;;;;;;117.40;33.95;;;;;;;;;;5157933;27;19919;-73
2021/12/16 13:03:03;;;;;;;110.10;33.35;;;;;;;;;;5157919;27;20096;-73
2021/12/16 13:05:29;;;;;;;98.03;32.13;;;;;;;;;;5157300;27;20089;-71
2021/12/16 13:07:55;;;;;;;;;;;;;;;;;;5157066;27;20034;-72
2021/12/16 13:10:29;;;;;;;102.93;31.55;;;;;;;;;;5137689;27;19942;-71
2021/12/16 13:13:03;;;;;;;107.65;31.23;;;;;;;;;;5156739;27;20047;-72
2021/12/16 13:23:34;;;;;;;121.18;31.20;;;;;;;;;;5157320;27;20057;-73
2021/12/16 13:26:26;;;;;;;151.95;35.22;;;;;;;;;;5157014;27;20075;-73
2021/12/16 13:29:12;;;;;;;151.55;34.50;;;;;;;;;;5157494;27;20043;-72
2021/12/16 13:32:05;;;;;;;134.55;33.28;;;;;;;;;;5157504;27;20053;-72
2021/12/16 13:34:42;;;;;;;126.65;31.27;;;;;;;;;;5139128;27;20384;-71
2021/12/16 13:37:11;;;;;;;109.57;30.13;;;;;;;;;;5157113;27;20483;-74
2021/12/16 13:39:42;;;;;;;94.38;28.60;;;;;;;;;;5156908;27;20054;-73
2021/12/16 13:42:13;;;;;;;95.07;27.70;;;;;;;;;;5157241;27;20049;-73
2021/12/16 13:44:45;;;;;;;100.65;29.02;;;;;;;;;;5156640;27;20086;-74
2021/12/16 13:47:26;;;;;;;91.70;27.70;;;;;;;;;;5156559;27;20042;-73
2021/12/16 13:58:45;;;;;;;73.72;23.05;;;;;;;;;;5157053;27;20156;-72
2021/12/16 14:04:13;;;;;;;69.25;21.80;;;;;;;;;;5156323;27;20462;-74
2021/12/16 14:06:55;;;;;;;63.50;20.45;;;;;;;;;;5155302;27;20046;-72
2021/12/16 14:09:31;;;;;;;75.55;20.42;;;;;;;;;;5137999;27;20068;-72
2021/12/16 14:23:20;;;;;;;84.30;22.77;;;;;;;;;;5156352;27;20386;-73
2021/12/16 14:31:45;;;;;;;87.28;23.48;;;;;;;;;;5155379;27;20082;-74
2021/12/16 14:46:59;;;;;;;96.10;23.85;;;;;;;;;;5155730;27;20390;-72
2021/12/16 14:49:32;;;;;;;117.07;24.73;;;;;;;;;;5156227;27;20042;-73
2021/12/16 14:51:59;;;;;;;106.32;24.33;;;;;;;;;;5155089;27;20097;-73
2021/12/16 14:54:26;;;;;;;89.05;23.35;;;;;;;;;;5155798;27;20042;-73
2021/12/16 14:56:57;;;;;;;95.63;23.67;;;;;;;;;;5136623;27;20074;-74
2021/12/16 14:59:25;;;;;;;96.38;22.50;;;;;;;;;;5155684;27;20050;-73
2021/12/16 15:01:53;;;;;;;100.57;23.75;;;;;;;;;;5155060;27;20043;-74
2021/12/16 15:04:25;;;;;;;101.80;24.33;;;;;;;;;;5155580;27;20077;-74
2021/12/16 15:07:00;;;;;;;91.85;24.08;;;;;;;;;;5136897;27;20121;-73
2021/12/16 15:09:32;;;;;;;89.90;24.25;;;;;;;;;;5136305;27;20046;-71
2021/12/16 15:12:09;;;;;;;133.98;26.98;;;;;;;;;;5155107;27;20462;-72
2021/12/16 15:44:49;;;;;;;113.70;26.55;;;;;;;;;;5159043;27;20050;-73
2021/12/16 15:47:15;;;;;;;142.77;32.58;;;;;;;;;;5158917;27;20367;-73
2021/12/16 15:49:41;;;;;;;102.57;25.08;;;;;;;;;;5159097;27;20035;-72
2021/12/16 15:52:08;;;;;;;111.28;27.92;;;;;;;;;;5158872;27;20043;-74
2021/12/16 15:54:35;;;;;;;100.93;27.98;;;;;;;;;;5158780;27;20130;-75
2021/12/16 15:57:01;;;;;;;92.45;26.00;;;;;;;;;;5158823;27;20049;-75
2021/12/16 15:59:29;;;;;;;88.60;25.88;;;;;;;;;;5158864;27;20046;-73
2021/12/16 16:01:55;;;;;;;83.28;26.40;;;;;;;;;;5141191;27;20118;-73
2021/12/16 16:04:26;;;;;;;95.65;25.27;;;;;;;;;;5158502;27;20480;-75
2021/12/16 16:06:56;;;;;;;90.10;26.48;;;;;;;;;;5122798;27;20125;-72
2021/12/16 16:09:23;;;;;;;90.60;25.65;;;;;;;;;;5159151;27;20061;-71
2021/12/16 16:11:52;;;;;;;124.47;36.60;;;;;;;;;;5158867;27;20097;-71
2021/12/16 16:14:19;;;;;;;116.88;31.27;;;;;;;;;;5158850;27;20096;-74
2021/12/16 16:16:49;;;;;;;100.65;29.67;;;;;;;;;;5158646;27;20121;-74
2021/12/16 16:19:27;;;;;;;106.40;28.83;;;;;;;;;;5140517;27;20126;-74
2021/12/16 16:21:54;;;;;;;106.07;29.50;;;;;;;;;;5153220;27;20051;-73
2021/12/16 16:24:29;;;;;;;122.57;29.60;;;;;;;;;;5158056;27;20509;-73
2021/12/16 16:26:58;;;;;;;121.80;31.17;;;;;;;;;;5158698;27;20053;-73
2021/12/16 16:29:26;;;;;;;113.93;29.75;;;;;;;;;;5139801;27;20050;-74
2021/12/16 16:31:53;;;;;;;123.32;31.23;;;;;;;;;;5139666;27;20466;-72
2021/12/16 16:34:21;;;;;;;114.47;29.67;;;;;;;;;;5158609;27;20134;-73
2021/12/16 16:36:50;;;;;;;124.40;34.35;;;;;;;;;;5159514;27;20039;-74
2021/12/16 16:39:18;;;;;;;149.82;34.40;;;;;;;;;;5159656;27;20090;-73
2021/12/16 16:41:58;;;;;;;159.18;34.53;;;;;;;;;;5158701;27;20042;-73
2021/12/16 16:44:26;;;;;;;148.60;32.88;;;;;;;;;;5122569;27;20086;-73
2021/12/16 16:47:08;;;;;;;155.40;36.17;;;;;;;;;;5157801;27;20082;-74
2021/12/16 16:49:45;;;;;;;135.27;31.55;;;;;;;;;;5157806;27;20482;-74
2021/12/16 16:52:12;;;;;;;143.13;32.58;;;;;;;;;;5158241;27;20049;-75
2021/12/16 16:54:41;;;;;;;150.02;33.55;;;;;;;;;;5157759;27;20046;-75
2021/12/16 16:57:07;;;;;;;131.82;32.90;;;;;;;;;;5157553;27;20046;-74
2021/12/16 16:59:54;;;;;;;122.15;32.53;;;;;;;;;;5157519;27;20054;-75
2021/12/16 17:02:32;;;;;;;175.53;36.73;;;;;;;;;;5158057;27;20043;-76
2021/12/16 17:04:58;;;;;;;125.18;33.47;;;;;;;;;;5138882;27;20103;-75
2021/12/16 17:07:25;;;;;;;140.65;34.58;;;;;;;;;;5157430;27;20046;-75
2021/12/16 17:09:51;;;;;;;152.23;36.20;;;;;;;;;;5157247;27;20061;-76
2021/12/16 17:12:18;;;;;;;162.48;35.70;;;;;;;;;;5157796;27;20054;-77
2021/12/16 17:15:00;;;;;;;168.05;36.33;;;;;;;;;;5139382;27;20070;-77
2021/12/16 17:17:27;;;;;;;167.95;37.60;;;;;;;;;;5138799;27;20043;-75
2021/12/16 17:20:08;;;;;;;161.52;36.20;;;;;;;;;;5157165;27;20071;-76
2021/12/16 17:22:40;;;;;;;170.60;39.13;;;;;;;;;;5158149;27;20098;-76
2021/12/16 17:25:08;;;;;;;213.55;42.13;;;;;;;;;;5157355;27;20047;-75
2021/12/16 17:27:42;;;;;;;243.98;43.28;;;;;;;;;;5157930;27;20061;-76
2021/12/16 17:30:13;;;;;;;195.18;40.08;;;;;;;;;;5159240;27;20051;-76
2021/12/16 17:32:41;;;;;;;209.30;42.65;;;;;;;;;;5157082;27;20047;-78
2021/12/16 17:35:10;;;;;;;224.55;42.17;;;;;;;;;;5157061;27;20531;-79
2021/12/16 17:37:39;;;;;;;247.55;42.67;;;;;;;;;;5156902;27;20054;-78
2021/12/16 17:40:13;;;;;;;154.35;39.67;;;;;;;;;;5139913;27;20065;-77
2021/12/16 17:42:47;;;;;;;208.15;40.92;;;;;;;;;;5160042;27;20387;-79
2021/12/16 17:45:33;;;;;;;199.57;38.80;;;;;;;;;;5156917;27;20133;-79
2021/12/16 17:48:01;;;;;;;177.73;38.42;;;;;;;;;;5158608;27;20049;-78
2021/12/16 17:50:29;;;;;;;208.18;40.10;;;;;;;;;;5158045;27;20042;-80
2021/12/16 17:52:57;;;;;;;229.35;40.72;;;;;;;;;;5156470;27;20085;-79
2021/12/16 17:55:29;;;;;;;247.35;41.58;;;;;;;;;;5156514;27;20049;-79
2021/12/16 17:57:58;;;;;;;165.82;35.30;;;;;;;;;;5156259;27;20043;-80
2021/12/16 18:00:26;;;;;;;174.55;36.78;;;;;;;;;;5138204;27;20045;-79
2021/12/16 18:02:54;;;;;;;211.85;44.92;;;;;;;;;;5156400;27;20466;-79
2021/12/16 18:05:21;;;;;;;195.18;43.17;;;;;;;;;;5156080;27;20557;-80
2021/12/16 18:07:47;;;;;;;217.00;44.72;;;;;;;;;;5156272;27;20042;-79
2021/12/16 18:10:15;;;;;;;287.55;49.42;;;;;;;;;;5155896;27;20054;-80
2021/12/16 18:12:44;;;;;;;263.77;46.45;;;;;;;;;;5156265;27;20061;-80
2021/12/16 18:15:10;;;;;;;243.90;47.42;;;;;;;;;;5156130;27;20049;-80
2021/12/16 18:17:39;;;;;;;254.02;46.38;;;;;;;;;;5156080;27;20039;-80
2021/12/16 18:20:15;;;;;;;209.52;43.70;;;;;;;;;;5138595;27;20051;-74
2021/12/16 18:22:42;;;;;;;229.63;42.10;;;;;;;;;;5158187;27;20134;-78
2021/12/16 18:25:14;;;;;;;232.65;41.78;;;;;;;;;;5163146;27;20280;-79
2021/12/16 18:28:00;;;;;;;203.05;38.00;;;;;;;;;;5157099;27;20042;-79
2021/12/16 18:30:32;;;;;;;179.20;38.50;;;;;;;;;;5159571;27;20478;-78
2021/12/16 18:33:01;;;;;;;155.18;39.40;;;;;;;;;;5156738;27;20081;-78
2021/12/16 18:35:34;;;;;;;216.60;41.88;;;;;;;;;;5156228;27;20047;-79
2021/12/16 18:38:05;;;;;;;188.05;42.92;;;;;;;;;;5156177;27;20039;-79
2021/12/16 18:40:31;;;;;;;224.68;43.30;;;;;;;;;;5137102;27;20046;-79
2021/12/16 18:42:59;;;;;;;182.68;39.53;;;;;;;;;;5155671;27;20039;-78